sensor_id;sensor_type;location;lat;lon;timestamp;temperature;humidity
11615;DHT22;5863;52.832;4.758;2023-01-05T00:01:28;10.90;99.90
11615;DHT22;5863;52.832;4.758;2023-01-05T00:03:55;11.00;99.90
11615;DHT22;5863;52.832;4.758;2023-01-05T00:06:23;10.90;99.90
11615;DHT22;5863;52.832;4.758;2023-01-05T00:08:50;10.90;99.90
11615;DHT22;5863;52.832;4.758;2023-01-05T00:11:19;10.90;99.90
11615;DHT22;5863;52.832;4.758;2023-01-05T00:14:05;10.90;99.90
11615;DHT22;5863;52.832;4.758;2023-01-05T00:16:49;10.90;99.90
11615;DHT22;5863;52.832;4.758;2023-01-05T00:19:34;10.90;99.90
11615;DHT22;5863;52.832;4.758;2023-01-05T00:22:23;10.90;99.90
11615;DHT22;5863;52.832;4.758;2023-01-05T00:24:56;10.90;99.90
11615;DHT22;5863;52.832;4.758;2023-01-05T00:27:22;10.90;99.90
11615;DHT22;5863;52.832;4.758;2023-01-05T00:29:49;10.90;99.90
11615;DHT22;5863;52.832;4.758;2023-01-05T00:32:16;10.90;99.90
11615;DHT22;5863;52.832;4.758;2023-01-05T00:34:42;10.90;99.90
11615;DHT22;5863;52.832;4.758;2023-01-05T00:37:09;10.90;99.90
11615;DHT22;5863;52.832;4.758;2023-01-05T00:39:37;10.90;99.90
11615;DHT22;5863;52.832;4.758;2023-01-05T00:42:04;10.80;99.90
11615;DHT22;5863;52.832;4.758;2023-01-05T00:44:31;10.90;99.90
11615;DHT22;5863;52.832;4.758;2023-01-05T00:46:57;10.80;99.90
11615;DHT22;5863;52.832;4.758;2023-01-05T00:49:24;10.80;99.90
11615;DHT22;5863;52.832;4.758;2023-01-05T00:51:51;10.80;99.90
11615;DHT22;5863;52.832;4.758;2023-01-05T00:54:17;10.80;99.90
11615;DHT22;5863;52.832;4.758;2023-01-05T00:56:46;10.80;99.90
11615;DHT22;5863;52.832;4.758;2023-01-05T00:59:14;10.80;99.90
11615;DHT22;5863;52.832;4.758;2023-01-05T01:01:41;10.80;99.90
11615;DHT22;5863;52.832;4.758;2023-01-05T01:04:07;10.80;99.90
11615;DHT22;5863;52.832;4.758;2023-01-05T01:06:34;10.80;99.90
11615;DHT22;5863;52.832;4.758;2023-01-05T01:09:01;10.80;99.90
11615;DHT22;5863;52.832;4.758;2023-01-05T01:11:27;10.80;99.90
11615;DHT22;5863;52.832;4.758;2023-01-05T01:13:58;10.80;99.90
11615;DHT22;5863;52.832;4.758;2023-01-05T01:16:24;10.80;99.90
11615;DHT22;5863;52.832;4.758;2023-01-05T01:18:51;10.80;99.90
11615;DHT22;5863;52.832;4.758;2023-01-05T01:21:18;10.80;99.90
11615;DHT22;5863;52.832;4.758;2023-01-05T01:23:44;10.80;99.90
11615;DHT22;5863;52.832;4.758;2023-01-05T01:26:12;10.80;99.90
11615;DHT22;5863;52.832;4.758;2023-01-05T01:28:39;10.80;99.90
11615;DHT22;5863;52.832;4.758;2023-01-05T01:31:08;10.80;99.90
11615;DHT22;5863;52.832;4.758;2023-01-05T01:33:37;10.80;99.90
11615;DHT22;5863;52.832;4.758;2023-01-05T01:36:06;10.70;99.90
11615;DHT22;5863;52.832;4.758;2023-01-05T01:38:33;10.80;99.90
11615;DHT22;5863;52.832;4.758;2023-01-05T01:41:00;10.80;99.90
11615;DHT22;5863;52.832;4.758;2023-01-05T01:43:45;10.60;99.90
11615;DHT22;5863;52.832;4.758;2023-01-05T01:46:14;10.80;99.90
11615;DHT22;5863;52.832;4.758;2023-01-05T01:48:44;10.80;99.90
11615;DHT22;5863;52.832;4.758;2023-01-05T01:51:15;10.70;99.90
11615;DHT22;5863;52.832;4.758;2023-01-05T01:53:45;10.80;99.90
11615;DHT22;5863;52.832;4.758;2023-01-05T01:56:17;10.80;99.90
11615;DHT22;5863;52.832;4.758;2023-01-05T01:58:46;10.80;99.90
11615;DHT22;5863;52.832;4.758;2023-01-05T02:01:14;10.80;99.90
11615;DHT22;5863;52.832;4.758;2023-01-05T02:03:41;10.80;99.90
11615;DHT22;5863;52.832;4.758;2023-01-05T02:06:08;10.80;99.90
11615;DHT22;5863;52.832;4.758;2023-01-05T02:08:35;10.80;99.90
11615;DHT22;5863;52.832;4.758;2023-01-05T02:11:21;10.80;99.90
11615;DHT22;5863;52.832;4.758;2023-01-05T02:14:00;10.80;99.90
11615;DHT22;5863;52.832;4.758;2023-01-05T02:16:38;10.80;99.90
11615;DHT22;5863;52.832;4.758;2023-01-05T02:22:28;10.80;99.90
11615;DHT22;5863;52.832;4.758;2023-01-05T02:25:13;10.80;99.90
11615;DHT22;5863;52.832;4.758;2023-01-05T02:27:47;10.80;99.90
11615;DHT22;5863;52.832;4.758;2023-01-05T02:33:23;10.80;99.90
11615;DHT22;5863;52.832;4.758;2023-01-05T02:35:57;10.80;99.90
11615;DHT22;5863;52.832;4.758;2023-01-05T02:38:32;10.70;99.90
11615;DHT22;5863;52.832;4.758;2023-01-05T02:41:05;10.70;99.90
11615;DHT22;5863;52.832;4.758;2023-01-05T02:43:33;10.70;99.90
11615;DHT22;5863;52.832;4.758;2023-01-05T02:46:00;10.70;99.90
11615;DHT22;5863;52.832;4.758;2023-01-05T02:48:28;10.70;99.90
11615;DHT22;5863;52.832;4.758;2023-01-05T02:51:00;10.70;99.90
11615;DHT22;5863;52.832;4.758;2023-01-05T02:53:31;10.70;99.90
11615;DHT22;5863;52.832;4.758;2023-01-05T02:56:02;10.70;99.90
11615;DHT22;5863;52.832;4.758;2023-01-05T02:58:33;10.70;99.90
11615;DHT22;5863;52.832;4.758;2023-01-05T03:01:06;10.70;99.90
11615;DHT22;5863;52.832;4.758;2023-01-05T03:03:38;10.70;99.90
11615;DHT22;5863;52.832;4.758;2023-01-05T03:06:10;10.70;99.90
11615;DHT22;5863;52.832;4.758;2023-01-05T03:08:51;10.70;99.90
11615;DHT22;5863;52.832;4.758;2023-01-05T03:11:19;10.70;99.90
11615;DHT22;5863;52.832;4.758;2023-01-05T03:14:09;10.70;99.90
11615;DHT22;5863;52.832;4.758;2023-01-05T03:16:38;10.70;99.90
11615;DHT22;5863;52.832;4.758;2023-01-05T03:19:10;10.70;99.90
11615;DHT22;5863;52.832;4.758;2023-01-05T03:22:14;10.70;99.90
11615;DHT22;5863;52.832;4.758;2023-01-05T03:24:59;10.70;99.90
11615;DHT22;5863;52.832;4.758;2023-01-05T03:27:46;10.70;99.90
11615;DHT22;5863;52.832;4.758;2023-01-05T03:30:35;10.70;99.90
11615;DHT22;5863;52.832;4.758;2023-01-05T03:33:28;10.70;99.90
11615;DHT22;5863;52.832;4.758;2023-01-05T03:36:17;10.60;99.90
11615;DHT22;5863;52.832;4.758;2023-01-05T03:38:47;10.70;99.90
11615;DHT22;5863;52.832;4.758;2023-01-05T03:41:15;10.70;99.90
11615;DHT22;5863;52.832;4.758;2023-01-05T03:43:43;10.70;99.90
11615;DHT22;5863;52.832;4.758;2023-01-05T03:46:15;10.70;99.90
11615;DHT22;5863;52.832;4.758;2023-01-05T03:48:42;10.70;99.90
11615;DHT22;5863;52.832;4.758;2023-01-05T03:51:09;10.60;99.90
11615;DHT22;5863;52.832;4.758;2023-01-05T03:53:37;10.60;99.90
11615;DHT22;5863;52.832;4.758;2023-01-05T03:56:04;10.60;99.90
11615;DHT22;5863;52.832;4.758;2023-01-05T03:58:31;10.60;99.90
11615;DHT22;5863;52.832;4.758;2023-01-05T04:00:57;10.60;99.90
11615;DHT22;5863;52.832;4.758;2023-01-05T04:03:24;10.60;99.90
11615;DHT22;5863;52.832;4.758;2023-01-05T04:05:51;10.60;99.90
11615;DHT22;5863;52.832;4.758;2023-01-05T04:08:20;10.60;99.90
11615;DHT22;5863;52.832;4.758;2023-01-05T04:10:50;10.60;99.90
11615;DHT22;5863;52.832;4.758;2023-01-05T04:13:17;10.60;99.90
11615;DHT22;5863;52.832;4.758;2023-01-05T04:15:44;10.60;99.90
11615;DHT22;5863;52.832;4.758;2023-01-05T04:18:10;10.60;99.90
11615;DHT22;5863;52.832;4.758;2023-01-05T04:20:37;10.60;99.90
11615;DHT22;5863;52.832;4.758;2023-01-05T04:23:05;10.60;99.90
11615;DHT22;5863;52.832;4.758;2023-01-05T04:25:32;10.60;99.90
11615;DHT22;5863;52.832;4.758;2023-01-05T04:28:00;10.60;99.90
11615;DHT22;5863;52.832;4.758;2023-01-05T04:30:26;10.60;99.90
11615;DHT22;5863;52.832;4.758;2023-01-05T04:32:53;10.50;99.90
11615;DHT22;5863;52.832;4.758;2023-01-05T04:35:20;10.50;99.90
11615;DHT22;5863;52.832;4.758;2023-01-05T04:37:46;10.50;99.90
11615;DHT22;5863;52.832;4.758;2023-01-05T04:40:13;10.50;99.90
11615;DHT22;5863;52.832;4.758;2023-01-05T04:42:40;10.50;99.90
11615;DHT22;5863;52.832;4.758;2023-01-05T04:45:09;10.40;99.90
11615;DHT22;5863;52.832;4.758;2023-01-05T04:47:36;10.40;99.90
11615;DHT22;5863;52.832;4.758;2023-01-05T04:50:03;10.40;99.90
11615;DHT22;5863;52.832;4.758;2023-01-05T04:52:30;10.40;99.90
11615;DHT22;5863;52.832;4.758;2023-01-05T04:54:57;10.40;99.90
11615;DHT22;5863;52.832;4.758;2023-01-05T04:57:23;10.40;99.90
11615;DHT22;5863;52.832;4.758;2023-01-05T04:59:50;10.40;99.90
11615;DHT22;5863;52.832;4.758;2023-01-05T05:02:18;10.40;99.90
11615;DHT22;5863;52.832;4.758;2023-01-05T05:04:45;10.40;99.90
11615;DHT22;5863;52.832;4.758;2023-01-05T05:07:12;10.50;99.90
11615;DHT22;5863;52.832;4.758;2023-01-05T05:09:39;10.50;99.90
11615;DHT22;5863;52.832;4.758;2023-01-05T05:12:06;10.50;99.90
11615;DHT22;5863;52.832;4.758;2023-01-05T05:14:33;10.50;99.90
11615;DHT22;5863;52.832;4.758;2023-01-05T05:17:00;10.50;99.90
11615;DHT22;5863;52.832;4.758;2023-01-05T05:19:28;10.50;99.90
11615;DHT22;5863;52.832;4.758;2023-01-05T05:21:54;10.60;99.90
11615;DHT22;5863;52.832;4.758;2023-01-05T05:24:21;10.60;99.90
11615;DHT22;5863;52.832;4.758;2023-01-05T05:26:48;10.60;99.90
11615;DHT22;5863;52.832;4.758;2023-01-05T05:29:15;10.60;99.90
11615;DHT22;5863;52.832;4.758;2023-01-05T05:31:42;10.60;99.90
11615;DHT22;5863;52.832;4.758;2023-01-05T05:34:10;10.60;99.90
11615;DHT22;5863;52.832;4.758;2023-01-05T05:36:38;10.60;99.90
11615;DHT22;5863;52.832;4.758;2023-01-05T05:39:04;10.60;99.90
11615;DHT22;5863;52.832;4.758;2023-01-05T05:41:31;10.60;99.90
11615;DHT22;5863;52.832;4.758;2023-01-05T05:43:59;10.60;99.90
11615;DHT22;5863;52.832;4.758;2023-01-05T05:46:27;10.60;99.90
11615;DHT22;5863;52.832;4.758;2023-01-05T05:48:54;10.60;99.90
11615;DHT22;5863;52.832;4.758;2023-01-05T05:51:21;10.50;99.90
11615;DHT22;5863;52.832;4.758;2023-01-05T05:53:49;10.50;99.90
11615;DHT22;5863;52.832;4.758;2023-01-05T05:56:16;10.50;99.90
11615;DHT22;5863;52.832;4.758;2023-01-05T05:58:43;10.50;99.90
11615;DHT22;5863;52.832;4.758;2023-01-05T06:01:10;10.50;99.90
11615;DHT22;5863;52.832;4.758;2023-01-05T06:03:37;10.50;99.90
11615;DHT22;5863;52.832;4.758;2023-01-05T06:06:04;10.50;99.90
11615;DHT22;5863;52.832;4.758;2023-01-05T06:08:31;10.50;99.90
11615;DHT22;5863;52.832;4.758;2023-01-05T06:10:59;10.50;99.90
11615;DHT22;5863;52.832;4.758;2023-01-05T06:13:26;10.40;99.90
11615;DHT22;5863;52.832;4.758;2023-01-05T06:15:52;10.40;99.90
11615;DHT22;5863;52.832;4.758;2023-01-05T06:18:19;10.40;99.90
11615;DHT22;5863;52.832;4.758;2023-01-05T06:20:46;10.40;99.90
11615;DHT22;5863;52.832;4.758;2023-01-05T06:23:13;10.40;99.90
11615;DHT22;5863;52.832;4.758;2023-01-05T06:25:39;10.40;99.90
11615;DHT22;5863;52.832;4.758;2023-01-05T06:28:08;10.50;99.90
11615;DHT22;5863;52.832;4.758;2023-01-05T06:30:35;10.50;99.90
11615;DHT22;5863;52.832;4.758;2023-01-05T06:33:01;10.50;99.90
11615;DHT22;5863;52.832;4.758;2023-01-05T06:35:29;10.40;99.90
11615;DHT22;5863;52.832;4.758;2023-01-05T06:37:56;10.50;99.90
11615;DHT22;5863;52.832;4.758;2023-01-05T06:40:22;10.50;99.90
11615;DHT22;5863;52.832;4.758;2023-01-05T06:42:49;10.50;99.90
11615;DHT22;5863;52.832;4.758;2023-01-05T06:45:17;10.40;99.90
11615;DHT22;5863;52.832;4.758;2023-01-05T06:47:44;10.40;99.90
11615;DHT22;5863;52.832;4.758;2023-01-05T06:50:10;10.40;99.90
11615;DHT22;5863;52.832;4.758;2023-01-05T06:52:37;10.40;99.90
11615;DHT22;5863;52.832;4.758;2023-01-05T06:55:06;10.40;99.90
11615;DHT22;5863;52.832;4.758;2023-01-05T06:57:33;10.40;99.90
11615;DHT22;5863;52.832;4.758;2023-01-05T07:00:01;10.40;99.90
11615;DHT22;5863;52.832;4.758;2023-01-05T07:02:29;10.30;99.90
11615;DHT22;5863;52.832;4.758;2023-01-05T07:05:01;10.40;99.90
11615;DHT22;5863;52.832;4.758;2023-01-05T07:07:28;10.40;99.90
11615;DHT22;5863;52.832;4.758;2023-01-05T07:09:55;10.40;99.90
11615;DHT22;5863;52.832;4.758;2023-01-05T07:12:22;10.30;99.90
11615;DHT22;5863;52.832;4.758;2023-01-05T07:14:50;10.30;99.90
11615;DHT22;5863;52.832;4.758;2023-01-05T07:17:16;10.30;99.90
11615;DHT22;5863;52.832;4.758;2023-01-05T07:19:44;10.30;99.90
11615;DHT22;5863;52.832;4.758;2023-01-05T07:22:11;10.30;99.90
11615;DHT22;5863;52.832;4.758;2023-01-05T07:24:40;10.30;99.90
11615;DHT22;5863;52.832;4.758;2023-01-05T07:27:06;10.20;99.90
11615;DHT22;5863;52.832;4.758;2023-01-05T07:29:34;10.20;99.90
11615;DHT22;5863;52.832;4.758;2023-01-05T07:32:00;10.30;99.90
11615;DHT22;5863;52.832;4.758;2023-01-05T07:34:27;10.20;99.90
11615;DHT22;5863;52.832;4.758;2023-01-05T07:36:55;10.20;99.90
11615;DHT22;5863;52.832;4.758;2023-01-05T07:39:23;10.10;99.90
11615;DHT22;5863;52.832;4.758;2023-01-05T07:41:50;10.10;99.90
11615;DHT22;5863;52.832;4.758;2023-01-05T07:44:23;10.10;99.90
11615;DHT22;5863;52.832;4.758;2023-01-05T07:46:49;10.10;99.90
11615;DHT22;5863;52.832;4.758;2023-01-05T07:49:16;10.20;99.90
11615;DHT22;5863;52.832;4.758;2023-01-05T07:51:43;10.20;99.90
11615;DHT22;5863;52.832;4.758;2023-01-05T07:54:11;10.30;99.90
11615;DHT22;5863;52.832;4.758;2023-01-05T07:56:39;10.30;99.90
11615;DHT22;5863;52.832;4.758;2023-01-05T07:59:05;10.30;99.90
11615;DHT22;5863;52.832;4.758;2023-01-05T08:01:32;10.30;99.90
11615;DHT22;5863;52.832;4.758;2023-01-05T08:03:59;10.30;99.90
11615;DHT22;5863;52.832;4.758;2023-01-05T08:06:25;10.40;99.90
11615;DHT22;5863;52.832;4.758;2023-01-05T08:08:54;10.40;99.90
11615;DHT22;5863;52.832;4.758;2023-01-05T08:11:24;10.40;99.90
11615;DHT22;5863;52.832;4.758;2023-01-05T08:13:50;10.50;99.90
11615;DHT22;5863;52.832;4.758;2023-01-05T08:16:27;10.40;99.90
11615;DHT22;5863;52.832;4.758;2023-01-05T08:18:54;10.50;99.90
11615;DHT22;5863;52.832;4.758;2023-01-05T08:21:21;10.60;99.90
11615;DHT22;5863;52.832;4.758;2023-01-05T08:23:48;10.50;99.90
11615;DHT22;5863;52.832;4.758;2023-01-05T08:26:18;10.50;99.90
11615;DHT22;5863;52.832;4.758;2023-01-05T08:28:47;10.50;99.90
11615;DHT22;5863;52.832;4.758;2023-01-05T08:31:18;10.50;99.90
11615;DHT22;5863;52.832;4.758;2023-01-05T08:33:45;10.50;99.90
11615;DHT22;5863;52.832;4.758;2023-01-05T08:36:13;10.50;99.90
11615;DHT22;5863;52.832;4.758;2023-01-05T08:38:41;10.50;99.90
11615;DHT22;5863;52.832;4.758;2023-01-05T08:41:18;10.50;99.90
11615;DHT22;5863;52.832;4.758;2023-01-05T08:43:49;10.60;99.90
11615;DHT22;5863;52.832;4.758;2023-01-05T08:46:17;10.60;99.90
11615;DHT22;5863;52.832;4.758;2023-01-05T08:48:47;10.60;99.90
11615;DHT22;5863;52.832;4.758;2023-01-05T08:51:13;10.60;99.90
11615;DHT22;5863;52.832;4.758;2023-01-05T08:53:40;10.60;99.90
11615;DHT22;5863;52.832;4.758;2023-01-05T08:56:07;10.60;99.90
11615;DHT22;5863;52.832;4.758;2023-01-05T08:58:35;10.60;99.90
11615;DHT22;5863;52.832;4.758;2023-01-05T09:01:06;10.70;99.90
11615;DHT22;5863;52.832;4.758;2023-01-05T09:03:33;10.70;99.90
11615;DHT22;5863;52.832;4.758;2023-01-05T09:06:00;10.70;99.90
11615;DHT22;5863;52.832;4.758;2023-01-05T09:08:28;10.70;99.90
11615;DHT22;5863;52.832;4.758;2023-01-05T09:11:04;10.80;99.90
11615;DHT22;5863;52.832;4.758;2023-01-05T09:13:30;10.80;99.90
11615;DHT22;5863;52.832;4.758;2023-01-05T09:16:03;10.80;99.90
11615;DHT22;5863;52.832;4.758;2023-01-05T09:18:31;10.80;99.90
11615;DHT22;5863;52.832;4.758;2023-01-05T09:20:57;10.80;99.90
11615;DHT22;5863;52.832;4.758;2023-01-05T09:23:25;10.80;99.90
11615;DHT22;5863;52.832;4.758;2023-01-05T09:25:52;10.80;99.90
11615;DHT22;5863;52.832;4.758;2023-01-05T09:28:19;10.90;99.90
11615;DHT22;5863;52.832;4.758;2023-01-05T09:30:46;10.90;99.90
11615;DHT22;5863;52.832;4.758;2023-01-05T09:33:13;10.90;99.90
11615;DHT22;5863;52.832;4.758;2023-01-05T09:35:41;10.90;99.90
11615;DHT22;5863;52.832;4.758;2023-01-05T09:38:08;10.90;99.90
11615;DHT22;5863;52.832;4.758;2023-01-05T09:40:39;10.90;99.90
11615;DHT22;5863;52.832;4.758;2023-01-05T09:43:10;11.00;99.90
11615;DHT22;5863;52.832;4.758;2023-01-05T09:45:40;11.00;99.90
11615;DHT22;5863;52.832;4.758;2023-01-05T09:48:10;11.00;99.90
11615;DHT22;5863;52.832;4.758;2023-01-05T09:50:40;11.00;99.90
11615;DHT22;5863;52.832;4.758;2023-01-05T09:53:09;11.00;99.90
11615;DHT22;5863;52.832;4.758;2023-01-05T09:55:40;11.10;99.90
11615;DHT22;5863;52.832;4.758;2023-01-05T09:58:11;11.10;99.90
11615;DHT22;5863;52.832;4.758;2023-01-05T10:00:41;11.20;99.90
11615;DHT22;5863;52.832;4.758;2023-01-05T10:03:14;11.20;99.90
11615;DHT22;5863;52.832;4.758;2023-01-05T10:05:45;11.20;99.90
11615;DHT22;5863;52.832;4.758;2023-01-05T10:08:17;11.30;99.90
11615;DHT22;5863;52.832;4.758;2023-01-05T10:10:46;11.30;99.90
11615;DHT22;5863;52.832;4.758;2023-01-05T10:13:38;11.30;99.90
11615;DHT22;5863;52.832;4.758;2023-01-05T10:16:05;11.30;99.90
11615;DHT22;5863;52.832;4.758;2023-01-05T10:18:32;11.30;99.90
11615;DHT22;5863;52.832;4.758;2023-01-05T10:21:10;11.30;99.90
11615;DHT22;5863;52.832;4.758;2023-01-05T10:23:48;11.30;99.90
11615;DHT22;5863;52.832;4.758;2023-01-05T10:26:21;11.30;99.90
11615;DHT22;5863;52.832;4.758;2023-01-05T10:28:53;11.30;99.90
11615;DHT22;5863;52.832;4.758;2023-01-05T10:31:22;11.30;99.90
11615;DHT22;5863;52.832;4.758;2023-01-05T10:34:00;11.30;99.90
11615;DHT22;5863;52.832;4.758;2023-01-05T10:36:49;11.30;99.90
11615;DHT22;5863;52.832;4.758;2023-01-05T10:39:25;11.30;99.90
11615;DHT22;5863;52.832;4.758;2023-01-05T10:42:00;11.30;99.90
11615;DHT22;5863;52.832;4.758;2023-01-05T10:44:42;11.30;99.90
11615;DHT22;5863;52.832;4.758;2023-01-05T10:47:13;11.40;99.90
11615;DHT22;5863;52.832;4.758;2023-01-05T10:49:42;11.50;99.90
11615;DHT22;5863;52.832;4.758;2023-01-05T10:52:13;11.50;99.90
11615;DHT22;5863;52.832;4.758;2023-01-05T10:54:44;11.40;99.90
11615;DHT22;5863;52.832;4.758;2023-01-05T10:57:38;11.50;99.90
11615;DHT22;5863;52.832;4.758;2023-01-05T11:00:10;11.50;99.90
11615;DHT22;5863;52.832;4.758;2023-01-05T11:02:39;11.50;99.90
11615;DHT22;5863;52.832;4.758;2023-01-05T11:05:21;11.50;99.90
11615;DHT22;5863;52.832;4.758;2023-01-05T11:07:54;11.40;99.90
11615;DHT22;5863;52.832;4.758;2023-01-05T11:10:23;11.40;99.90
11615;DHT22;5863;52.832;4.758;2023-01-05T11:12:53;11.40;99.90
11615;DHT22;5863;52.832;4.758;2023-01-05T11:15:33;11.50;99.90
11615;DHT22;5863;52.832;4.758;2023-01-05T11:18:06;11.40;99.90
11615;DHT22;5863;52.832;4.758;2023-01-05T11:20:32;11.40;99.90
11615;DHT22;5863;52.832;4.758;2023-01-05T11:23:00;11.50;99.90
11615;DHT22;5863;52.832;4.758;2023-01-05T11:25:31;11.50;99.90
11615;DHT22;5863;52.832;4.758;2023-01-05T11:28:08;11.50;99.90
11615;DHT22;5863;52.832;4.758;2023-01-05T11:30:35;11.50;99.90
11615;DHT22;5863;52.832;4.758;2023-01-05T11:33:11;11.50;99.90
11615;DHT22;5863;52.832;4.758;2023-01-05T11:35:39;11.40;99.90
11615;DHT22;5863;52.832;4.758;2023-01-05T11:38:19;11.50;99.90
11615;DHT22;5863;52.832;4.758;2023-01-05T11:40:47;11.50;99.90
11615;DHT22;5863;52.832;4.758;2023-01-05T11:43:17;11.50;99.90
11615;DHT22;5863;52.832;4.758;2023-01-05T11:45:48;11.50;99.90
11615;DHT22;5863;52.832;4.758;2023-01-05T11:48:19;11.50;99.90
11615;DHT22;5863;52.832;4.758;2023-01-05T11:50:48;11.50;99.90
11615;DHT22;5863;52.832;4.758;2023-01-05T11:53:26;11.50;99.90
11615;DHT22;5863;52.832;4.758;2023-01-05T11:56:17;11.50;99.90
11615;DHT22;5863;52.832;4.758;2023-01-05T11:58:45;11.50;99.90
11615;DHT22;5863;52.832;4.758;2023-01-05T12:01:39;11.50;99.90
11615;DHT22;5863;52.832;4.758;2023-01-05T12:04:35;11.50;99.90
11615;DHT22;5863;52.832;4.758;2023-01-05T12:07:20;11.50;99.90
11615;DHT22;5863;52.832;4.758;2023-01-05T12:09:58;11.40;99.90
11615;DHT22;5863;52.832;4.758;2023-01-05T12:12:40;11.40;99.90
11615;DHT22;5863;52.832;4.758;2023-01-05T12:15:31;11.40;99.90
11615;DHT22;5863;52.832;4.758;2023-01-05T12:18:11;11.50;99.90
11615;DHT22;5863;52.832;4.758;2023-01-05T12:20:54;11.60;99.90
11615;DHT22;5863;52.832;4.758;2023-01-05T12:23:40;11.60;99.90
11615;DHT22;5863;52.832;4.758;2023-01-05T12:26:17;11.70;99.90
11615;DHT22;5863;52.832;4.758;2023-01-05T12:32:04;11.70;99.90
11615;DHT22;5863;52.832;4.758;2023-01-05T12:34:52;11.70;99.90
11615;DHT22;5863;52.832;4.758;2023-01-05T12:37:28;11.80;99.90
11615;DHT22;5863;52.832;4.758;2023-01-05T12:40:11;11.80;99.90
11615;DHT22;5863;52.832;4.758;2023-01-05T12:43:00;11.80;99.90
11615;DHT22;5863;52.832;4.758;2023-01-05T12:45:41;11.90;99.90
11615;DHT22;5863;52.832;4.758;2023-01-05T12:48:15;11.80;99.90
11615;DHT22;5863;52.832;4.758;2023-01-05T12:50:51;11.80;99.90
11615;DHT22;5863;52.832;4.758;2023-01-05T12:53:25;11.80;99.90
11615;DHT22;5863;52.832;4.758;2023-01-05T12:55:55;11.80;99.90
11615;DHT22;5863;52.832;4.758;2023-01-05T12:58:28;11.70;99.90
11615;DHT22;5863;52.832;4.758;2023-01-05T13:00:55;11.70;99.90
11615;DHT22;5863;52.832;4.758;2023-01-05T13:03:27;11.80;99.90
11615;DHT22;5863;52.832;4.758;2023-01-05T13:06:00;11.80;99.90
11615;DHT22;5863;52.832;4.758;2023-01-05T13:08:35;11.80;99.90
11615;DHT22;5863;52.832;4.758;2023-01-05T13:11:06;11.80;99.90
11615;DHT22;5863;52.832;4.758;2023-01-05T13:13:40;11.70;99.90
11615;DHT22;5863;52.832;4.758;2023-01-05T13:16:12;11.70;99.90
11615;DHT22;5863;52.832;4.758;2023-01-05T13:18:46;11.80;99.90
11615;DHT22;5863;52.832;4.758;2023-01-05T13:21:14;11.70;99.90
11615;DHT22;5863;52.832;4.758;2023-01-05T13:23:44;11.70;99.90
11615;DHT22;5863;52.832;4.758;2023-01-05T13:26:14;11.70;99.90
11615;DHT22;5863;52.832;4.758;2023-01-05T13:28:45;11.70;99.90
11615;DHT22;5863;52.832;4.758;2023-01-05T13:31:45;11.70;99.90
11615;DHT22;5863;52.832;4.758;2023-01-05T13:40:19;11.60;99.90
11615;DHT22;5863;52.832;4.758;2023-01-05T13:43:09;11.60;99.90
11615;DHT22;5863;52.832;4.758;2023-01-05T13:46:09;11.50;99.90
11615;DHT22;5863;52.832;4.758;2023-01-05T13:48:59;11.50;99.90
11615;DHT22;5863;52.832;4.758;2023-01-05T13:51:52;11.50;99.90
11615;DHT22;5863;52.832;4.758;2023-01-05T13:54:36;11.50;99.90
11615;DHT22;5863;52.832;4.758;2023-01-05T13:57:05;11.50;99.90
11615;DHT22;5863;52.832;4.758;2023-01-05T13:59:34;11.50;99.90
11615;DHT22;5863;52.832;4.758;2023-01-05T14:02:04;11.40;99.90
11615;DHT22;5863;52.832;4.758;2023-01-05T14:04:48;11.40;99.90
11615;DHT22;5863;52.832;4.758;2023-01-05T14:07:16;11.30;99.90
11615;DHT22;5863;52.832;4.758;2023-01-05T14:09:52;11.30;99.90
11615;DHT22;5863;52.832;4.758;2023-01-05T14:12:42;11.20;99.90
11615;DHT22;5863;52.832;4.758;2023-01-05T14:15:32;11.10;99.90
11615;DHT22;5863;52.832;4.758;2023-01-05T14:18:01;11.10;99.90
11615;DHT22;5863;52.832;4.758;2023-01-05T14:20:39;11.10;99.90
11615;DHT22;5863;52.832;4.758;2023-01-05T14:26:12;11.00;99.90
11615;DHT22;5863;52.832;4.758;2023-01-05T14:28:44;11.10;99.90
11615;DHT22;5863;52.832;4.758;2023-01-05T14:31:35;11.10;99.90
11615;DHT22;5863;52.832;4.758;2023-01-05T14:34:05;11.10;99.90
11615;DHT22;5863;52.832;4.758;2023-01-05T14:36:40;11.00;99.90
11615;DHT22;5863;52.832;4.758;2023-01-05T14:39:21;11.10;99.90
11615;DHT22;5863;52.832;4.758;2023-01-05T14:42:01;11.10;99.90
11615;DHT22;5863;52.832;4.758;2023-01-05T14:44:31;11.00;99.90
11615;DHT22;5863;52.832;4.758;2023-01-05T14:46:59;11.00;99.90
11615;DHT22;5863;52.832;4.758;2023-01-05T14:49:31;11.00;99.90
11615;DHT22;5863;52.832;4.758;2023-01-05T14:52:01;11.00;99.90
11615;DHT22;5863;52.832;4.758;2023-01-05T14:54:36;11.10;99.90
11615;DHT22;5863;52.832;4.758;2023-01-05T14:57:38;11.00;99.90
11615;DHT22;5863;52.832;4.758;2023-01-05T15:00:15;11.00;99.90
11615;DHT22;5863;52.832;4.758;2023-01-05T15:03:03;11.00;99.90
11615;DHT22;5863;52.832;4.758;2023-01-05T15:05:32;11.00;99.90
11615;DHT22;5863;52.832;4.758;2023-01-05T15:08:10;10.90;99.90
11615;DHT22;5863;52.832;4.758;2023-01-05T15:11:01;10.90;99.90
11615;DHT22;5863;52.832;4.758;2023-01-05T15:13:54;10.90;99.90
11615;DHT22;5863;52.832;4.758;2023-01-05T15:17:05;10.90;99.90
11615;DHT22;5863;52.832;4.758;2023-01-05T15:19:47;10.90;99.90
11615;DHT22;5863;52.832;4.758;2023-01-05T15:22:31;10.90;99.90
11615;DHT22;5863;52.832;4.758;2023-01-05T15:25:15;11.00;99.90
11615;DHT22;5863;52.832;4.758;2023-01-05T15:28:21;10.90;99.90
11615;DHT22;5863;52.832;4.758;2023-01-05T15:31:12;10.90;99.90
11615;DHT22;5863;52.832;4.758;2023-01-05T15:33:44;10.90;99.90
11615;DHT22;5863;52.832;4.758;2023-01-05T15:36:20;10.90;99.90
11615;DHT22;5863;52.832;4.758;2023-01-05T15:38:48;10.90;99.90
11615;DHT22;5863;52.832;4.758;2023-01-05T15:41:17;10.90;99.90
11615;DHT22;5863;52.832;4.758;2023-01-05T15:43:45;10.80;99.90
11615;DHT22;5863;52.832;4.758;2023-01-05T15:46:18;10.80;99.90
11615;DHT22;5863;52.832;4.758;2023-01-05T15:48:48;10.90;99.90
11615;DHT22;5863;52.832;4.758;2023-01-05T15:51:23;10.80;99.90
11615;DHT22;5863;52.832;4.758;2023-01-05T15:53:55;10.80;99.90
11615;DHT22;5863;52.832;4.758;2023-01-05T15:56:25;10.80;99.90
11615;DHT22;5863;52.832;4.758;2023-01-05T15:58:52;10.80;99.90
11615;DHT22;5863;52.832;4.758;2023-01-05T16:01:22;10.80;99.90
11615;DHT22;5863;52.832;4.758;2023-01-05T16:03:49;10.80;99.90
11615;DHT22;5863;52.832;4.758;2023-01-05T16:06:18;10.80;99.90
11615;DHT22;5863;52.832;4.758;2023-01-05T16:08:48;10.80;99.90
11615;DHT22;5863;52.832;4.758;2023-01-05T16:11:20;10.80;99.90
11615;DHT22;5863;52.832;4.758;2023-01-05T16:13:52;10.80;99.90
11615;DHT22;5863;52.832;4.758;2023-01-05T16:16:27;10.80;99.90
11615;DHT22;5863;52.832;4.758;2023-01-05T16:18:58;10.80;99.90
11615;DHT22;5863;52.832;4.758;2023-01-05T16:21:30;10.80;99.90
11615;DHT22;5863;52.832;4.758;2023-01-05T16:24:02;10.80;99.90
11615;DHT22;5863;52.832;4.758;2023-01-05T16:26:30;10.70;99.90
11615;DHT22;5863;52.832;4.758;2023-01-05T16:29:18;10.70;99.90
11615;DHT22;5863;52.832;4.758;2023-01-05T16:31:53;10.70;99.90
11615;DHT22;5863;52.832;4.758;2023-01-05T16:34:21;10.70;99.90